Hovedside
METAR-TAF:

METAR-TAF

Lufthavner :

Alta lufthavn

Alta, Norge

breddegrad: 69-59N, lengdegrad: 023-22E, høyde over havet: 0 m

Gjeldene værobservasjon

Denne rapporten ble laget for 16 minutter siden, klokken 14:20 UTC
Vind 4 kt fra Øst-nordøst
Temperatur 16°C
Luftfuktighet 68%
Trykk 1022 hPa
Sikt 10 km eller mer
ingen skyer under 1500 m og ingen bygeskyer

METAR: ENAT 071420Z 06004KT CAVOK 16/10 Q1022 RMK WIND 700FT VRB02KT

Tid: 16:36 (14:36 UTC)

Varsel

Denne rapporten ble laget for 3 timer og 36 minutter siden, klokken 11:00 UTC
Varsel gyldig fra 07. klokken 12 UTC til 07. klokken 21 UTC
Vind 8 kt fra Nord
Sikt 10 km eller mer
Få skyer i en høyde av 1500 ft
Brutte skyer i en høyde av 5000 ft

TAF: ENAT 071100Z 0712/0721 36008KT 9999 FEW015 BKN050

Værobservasjoner og værvarsel for over 4000 flyplasser (METAR- og TAF-rapporter).

Tilgjengelige stasjoner er representert av de røde og gule prikkene på kartet.

Hold musepekeren over prikken for å se navnet på stasjonen.

Klikk så for å se værobservasjoner og -varsler.

For å forandre kartet kan du klikke på den grønne knappen med svart kryss for å zoome inn, på den grønne knappen med strek for å zoome ut, eller på de grønne pilene for å se tilstøtende kart.


METAR-TAF: